Archival Weather

Tokyo Intl

Tokyo, Japan (RJTT)

Report from: Saturday, March 18, 2023 7:00 AM JST
Current time: Tuesday, July 16, 2024 6:33 PM JST

Current weather – Weather history – Daily summaries
Weather forecast

Present weatherLight rain, rain, mist
Temperature9.0°C (48.2°F)
Wind chill6.7°C (44.1°F)
Dew point8.0°C (46.4°F)
Winds 8 kts (4.1 m/s, 9.2 mph) North (350°)
Visibility5.6 mi. (9 km)
Clouds Few clouds 500 ft. (152 m)
Few clouds 800 ft. (244 m)
Ceiling: Broken clouds 800 ft. (244 m)
Broken clouds 1,000 ft. (305 m)
Broken clouds 1,500 ft. (457 m)
Altimeter30.03 in.Hg (1017 mB)
Relative humidity93 %
Density altitude-693 ft. (-211 m)
Flight conditions Instrument Meteorological Conditions
Raw dataRJTT 172200Z 35008KT 9000 -RA FEW008 BKN010 BKN015 09/08 Q1017 TEMPO 4000 RA BR FEW005 BKN008 RMK 2ST008 6ST010 7SC015 A3005
An error has occurred. This application may no longer respond until reloaded. Reload 🗙